Archival Weather

Eureka

Eureka, Canada (CWEU)

Report from: Tuesday, May 21, 2024 2:00 AM CDT
Current time: Saturday, June 22, 2024 4:07 AM CDT

Current weather – Weather history – Daily summaries
Weather forecast

Temperature-7.0°C (19.4°F)
Wind chill-14.4°C (6.0°F)
Dew point-13.0°C (8.6°F)
Winds 12 kts (6.2 m/s, 13.8 mph) North (360°)
Visibility15 mi. (24.1 km)
Clouds Scattered clouds 3,100 ft. (945 m)
Ceiling: Broken clouds 7,000 ft. (2,134 m)
Altimeter30.26 in.Hg (1025 mB)
Relative humidity62 %
Density altitude-3,128 ft. (-953 m)
Sea-level pressure102.6 kPa (1026 mB, 30.30 in.Hg)
Flight conditions Visual Meteorological Conditions
Raw dataCWEU 210700Z 36012KT 15SM SCT031 BKN070 M07/M13 A3026 RMK SC3AC2 SLP260
An error has occurred. This application may no longer respond until reloaded. Reload 🗙